»·PEaware :: PIN1722 PANC-CYZF

PIN1722 :: PANC-CYZF

FLIGHT INFORMATION

Flight Status: Arrived
Operator: Unknown
More flights by this operator :: More flights under this callsign
Pilot: Stacy K. (11621)
Aircraft: BOEING 737-800
(B738)
More flights by this aircraft type
Origin: PANC Stevens Anchorage Intl
United States
Destination: CYZF Yellowknife
Canada
More flights between these airports :: More routes between these airports
Route: TED BGQ J124 ORT NCA17 YZF
File this flight plan on PilotEdge
Remarks: PBN / A1B1C1D1S1S2 DOF / 180505 REG / N1404PK EET / CZEG0038 SEL / DEFK OPR / PIN PER / C RMK / TCAS SIMBRIEF
Altitude:
(Current/Filed)
33,000ft
Speed:
(Current/Filed)
433kts
Departed: 05-May-18 01:57 PM
Arrived: 05-May-18 04:05 PM
Distance/Time
Traveled:
998nm/2:08
Distance/Time
To Go:
Arrived

Flight Plot

Page will automatically refresh every two minutes.

Flight plan parsing failed; only flown route is shown


Map Options




Map Legend


Flown Route
Filed Route
Departure Airport
Arrival Airport
Navaid (VOR, NDB)
Fix

Horizontal Profiles

Position Reports

Time Latitude Longitude Heading Altitude Ground
Speed
05-May-18 13:20 61.175039 -149.984513 82 161ft 0kts
05-May-18 13:21 61.175039 -149.984513 82 161ft 0kts
05-May-18 13:22 61.175039 -149.984513 82 161ft 0kts
05-May-18 13:23 61.175039 -149.984513 82 161ft 0kts
05-May-18 13:24 61.175039 -149.984513 82 161ft 0kts
05-May-18 13:25 61.175039 -149.984513 82 161ft 0kts
05-May-18 13:26 61.175039 -149.984513 82 161ft 0kts
05-May-18 13:27 61.175039 -149.984513 82 161ft 0kts
05-May-18 13:28 61.175039 -149.984513 82 161ft 0kts
05-May-18 13:29 61.175039 -149.984513 82 161ft 0kts
05-May-18 13:30 61.175039 -149.984513 82 161ft 0kts
05-May-18 13:31 61.175039 -149.984513 82 161ft 0kts
05-May-18 13:32 61.175039 -149.984513 82 161ft 0kts
05-May-18 13:33 61.175039 -149.984513 82 161ft 0kts
05-May-18 13:34 61.175039 -149.984513 82 161ft 0kts
05-May-18 13:35 61.175039 -149.984513 82 161ft 0kts
05-May-18 13:36 61.175039 -149.984513 82 161ft 0kts
05-May-18 13:37 61.175039 -149.984513 82 161ft 0kts
05-May-18 13:38 61.175039 -149.984513 82 161ft 0kts
05-May-18 13:39 61.175039 -149.984513 82 161ft 0kts
05-May-18 13:40 61.175039 -149.984513 82 161ft 0kts
05-May-18 13:41 61.175039 -149.984513 82 161ft 0kts
05-May-18 13:42 61.175039 -149.984513 82 161ft 0kts
05-May-18 13:44 61.175039 -149.984513 82 161ft 0kts
05-May-18 13:45 61.174983 -149.985153 73 161ft 2kts
05-May-18 13:46 61.174615 -149.985821 339 161ft 2kts
05-May-18 13:47 61.174553 -149.985774 339 161ft 0kts
05-May-18 13:48 61.174553 -149.985774 339 161ft 0kts
05-May-18 13:49 61.174725 -149.985908 337 161ft 8kts
05-May-18 13:50 61.176638 -149.990171 262 161ft 15kts
05-May-18 13:51 61.177109 -149.998340 341 161ft 14kts
05-May-18 13:52 61.181588 -150.000765 346 161ft 22kts
05-May-18 13:53 61.186444 -150.003506 345 161ft 15kts
05-May-18 13:54 61.191630 -150.006453 344 161ft 14kts
05-May-18 13:55 61.196488 -150.009184 344 161ft 17kts
05-May-18 13:56 61.198554 -150.013771 183 161ft 10kts
05-May-18 13:57 61.164415 -149.995749 164 1527ft 205kts
05-May-18 13:58 61.140974 -149.892415 63 5006ft 263kts
05-May-18 13:59 61.205465 -149.806409 16 8813ft 294kts
05-May-18 14:00 61.275689 -149.888549 319 11645ft 345kts
05-May-18 14:01 61.379034 -149.933807 352 14364ft 403kts
05-May-18 14:02 61.494384 -149.950556 3 17563ft 428kts
05-May-18 14:03 61.587449 -149.802428 59 20235ft 441kts
05-May-18 14:04 61.635500 -149.565568 80 22704ft 448kts
05-May-18 14:05 61.668440 -149.307055 81 24856ft 467kts
05-May-18 14:06 61.704440 -149.036931 81 26579ft 489kts
05-May-18 14:07 61.743057 -148.755627 82 28011ft 507kts
05-May-18 14:08 61.782291 -148.468014 82 29703ft 512kts
05-May-18 14:09 61.821273 -148.177605 82 31367ft 513kts
05-May-18 14:10 61.860028 -147.886909 82 32608ft 513kts
05-May-18 14:11 61.897077 -147.598853 83 32634ft 506kts
05-May-18 14:12 61.933786 -147.308476 83 32615ft 511kts
05-May-18 14:13 61.970205 -147.016538 84 32612ft 512kts
05-May-18 14:14 62.006106 -146.722368 85 32630ft 516kts
05-May-18 14:15 62.041518 -146.426401 85 32664ft 516kts
05-May-18 14:16 62.076754 -146.128499 86 32722ft 519kts
05-May-18 14:17 62.110865 -145.828348 86 32731ft 519kts
05-May-18 14:18 62.144439 -145.528251 86 32721ft 521kts
05-May-18 14:19 62.202260 -145.236638 70 32721ft 541kts
05-May-18 14:20 62.272179 -144.948781 70 32718ft 546kts
05-May-18 14:21 62.342065 -144.657745 71 32708ft 549kts
05-May-18 14:22 62.411350 -144.362607 71 32696ft 553kts
05-May-18 14:23 62.479990 -144.064202 72 32676ft 555kts
05-May-18 14:24 62.547858 -143.763290 72 32657ft 556kts
05-May-18 14:25 62.615593 -143.460791 72 32643ft 556kts
05-May-18 14:26 62.682717 -143.157404 72 32632ft 557kts
05-May-18 14:27 62.749065 -142.852601 72 32624ft 558kts
05-May-18 14:28 62.815053 -142.544639 72 32621ft 560kts
05-May-18 14:29 62.880271 -142.234652 73 32620ft 561kts
05-May-18 14:30 62.943637 -141.922739 78 32617ft 555kts
05-May-18 14:31 62.976550 -141.597199 91 32620ft 540kts
05-May-18 14:32 62.999606 -141.270660 91 32614ft 541kts
05-May-18 14:33 63.022587 -140.943122 91 32605ft 541kts
05-May-18 14:34 63.044885 -140.615574 91 32585ft 542kts
05-May-18 14:35 63.066682 -140.286803 91 32583ft 543kts
05-May-18 14:36 63.087941 -139.956349 91 32581ft 542kts
05-May-18 14:37 63.109187 -139.625874 91 32580ft 543kts
05-May-18 14:38 63.128917 -139.295213 91 32578ft 542kts
05-May-18 14:39 63.148378 -138.964082 91 32588ft 542kts
05-May-18 14:40 63.167023 -138.633503 91 32595ft 543kts
05-May-18 14:41 63.184791 -138.300352 91 32597ft 543kts
05-May-18 14:42 63.201799 -137.968124 91 32601ft 543kts
05-May-18 14:43 63.218411 -137.635574 92 32604ft 542kts
05-May-18 14:44 63.233716 -137.303153 92 32607ft 541kts
05-May-18 14:45 63.248463 -136.970979 92 32610ft 541kts
05-May-18 14:46 63.262573 -136.638575 92 32611ft 541kts
05-May-18 14:47 63.276110 -136.305362 92 32612ft 541kts
05-May-18 14:48 63.288940 -135.971956 92 32612ft 541kts
05-May-18 14:49 63.300696 -135.638556 92 32617ft 540kts
05-May-18 14:50 63.311736 -135.305246 93 32624ft 539kts
05-May-18 14:51 63.321455 -134.973602 92 32632ft 539kts
05-May-18 14:52 63.330797 -134.639660 92 32645ft 539kts
05-May-18 14:53 63.338925 -134.306661 93 32659ft 539kts
05-May-18 14:54 63.346219 -133.972922 93 32674ft 540kts
05-May-18 14:55 63.353323 -133.638889 93 32687ft 540kts
05-May-18 14:56 63.359052 -133.305277 93 32697ft 538kts
05-May-18 14:57 63.364452 -132.972054 93 32709ft 538kts
05-May-18 14:58 63.368958 -132.638807 93 32714ft 539kts
05-May-18 14:59 63.372611 -132.305025 93 32719ft 539kts
05-May-18 15:00 63.375688 -131.970770 93 32723ft 540kts
05-May-18 15:01 63.378030 -131.636482 93 32726ft 539kts
05-May-18 15:02 63.379708 -131.302074 93 32728ft 538kts
05-May-18 15:03 63.380741 -130.967847 93 32731ft 538kts
05-May-18 15:04 63.380964 -130.634357 93 32733ft 538kts
05-May-18 15:05 63.380393 -130.300150 94 32735ft 539kts
05-May-18 15:06 63.378642 -129.965448 94 32737ft 540kts
05-May-18 15:07 63.376289 -129.630826 94 32739ft 539kts
05-May-18 15:08 63.372828 -129.298192 94 32766ft 537kts
05-May-18 15:08 63.369393 -129.020053 94 32767ft 537kts
05-May-18 15:09 63.364778 -128.687594 94 32734ft 537kts
05-May-18 15:11 63.358304 -128.300659 94 32696ft 536kts
05-May-18 15:12 63.351858 -127.969158 94 32694ft 535kts
05-May-18 15:13 63.345052 -127.637973 94 32693ft 535kts
05-May-18 15:14 63.337599 -127.308663 94 32693ft 534kts
05-May-18 15:15 63.329598 -126.978171 94 32693ft 533kts
05-May-18 15:15 63.321703 -126.703106 95 32686ft 533kts
05-May-18 15:16 63.311334 -126.374359 95 32677ft 534kts
05-May-18 15:17 63.300671 -126.044725 95 32677ft 535kts
05-May-18 15:18 63.289495 -125.714734 95 32676ft 535kts
05-May-18 15:19 63.277573 -125.385711 95 32676ft 533kts
05-May-18 15:20 63.265059 -125.058530 95 32676ft 532kts
05-May-18 15:21 63.251748 -124.731230 95 32677ft 532kts
05-May-18 15:22 63.237223 -124.404038 95 32679ft 532kts
05-May-18 15:23 63.221541 -124.077168 96 32680ft 533kts
05-May-18 15:24 63.205631 -123.750605 95 32682ft 532kts
05-May-18 15:25 63.188730 -123.424818 96 32685ft 533kts
05-May-18 15:26 63.172622 -123.099457 95 32717ft 531kts
05-May-18 15:27 63.156675 -122.775006 95 32719ft 530kts
05-May-18 15:28 63.139243 -122.450940 95 32718ft 531kts
05-May-18 15:29 63.120902 -122.127186 96 32721ft 531kts
05-May-18 15:30 63.102177 -121.804346 95 32723ft 530kts
05-May-18 15:31 63.082680 -121.482058 95 32726ft 529kts
05-May-18 15:32 63.062887 -121.160297 95 32727ft 529kts
05-May-18 15:33 63.042592 -120.839044 96 32727ft 529kts
05-May-18 15:34 63.020812 -120.519129 96 32730ft 528kts
05-May-18 15:35 62.998182 -120.199325 96 32733ft 528kts
05-May-18 15:36 62.975312 -119.880636 96 32736ft 528kts
05-May-18 15:37 62.951784 -119.562065 96 32738ft 527kts
05-May-18 15:38 62.927655 -119.244491 96 32738ft 527kts
05-May-18 15:39 62.902243 -118.927567 96 32739ft 527kts
05-May-18 15:40 62.876230 -118.611500 96 32738ft 527kts
05-May-18 15:41 62.850161 -118.298400 96 31339ft 512kts
05-May-18 15:42 62.824474 -117.997656 97 29538ft 495kts
05-May-18 15:43 62.802689 -117.705878 88 27736ft 474kts
05-May-18 15:44 62.802026 -117.423148 83 25939ft 458kts
05-May-18 15:45 62.805451 -117.149471 83 24138ft 443kts
05-May-18 15:46 62.809898 -116.884131 83 22335ft 429kts
05-May-18 15:47 62.814922 -116.627342 83 20534ft 416kts
05-May-18 15:48 62.820319 -116.378916 83 18734ft 402kts
05-May-18 15:49 62.826173 -116.138560 82 16934ft 389kts
05-May-18 15:50 62.832706 -115.906070 82 15158ft 376kts
05-May-18 15:51 62.840011 -115.681658 82 13558ft 365kts
05-May-18 15:52 62.847999 -115.469116 82 11944ft 319kts
05-May-18 15:53 62.853057 -115.282893 93 10495ft 302kts
05-May-18 15:54 62.844235 -115.102439 97 9186ft 293kts
05-May-18 15:55 62.835029 -114.927073 107 7741ft 282kts
05-May-18 15:56 62.787280 -114.800849 139 6389ft 263kts
05-May-18 15:58 62.735574 -114.692052 139 5031ft 254kts
05-May-18 15:59 62.685895 -114.588356 139 3830ft 239kts
05-May-18 16:00 62.638207 -114.491217 146 2999ft 233kts
05-May-18 16:01 62.584887 -114.462490 173 2901ft 178kts
05-May-18 16:02 62.540223 -114.454422 176 2137ft 145kts
05-May-18 16:03 62.501729 -114.449205 177 1557ft 132kts
05-May-18 16:04 62.468026 -114.443282 176 685ft 84kts
05-May-18 16:05 62.463959 -114.441554 333 684ft 34kts
05-May-18 16:06 62.470310 -114.440035 2 684ft 18kts
05-May-18 16:07 62.470962 -114.438996 120 684ft 0kts
05-May-18 16:08 62.470962 -114.438996 120 684ft 0kts
05-May-18 16:09 62.470962 -114.438996 120 684ft 0kts
05-May-18 16:10 62.470962 -114.438996 120 684ft 0kts
05-May-18 16:11 62.470962 -114.438996 120 684ft 0kts
05-May-18 16:12 62.470962 -114.438996 120 684ft 0kts

Navigation Log

Ident Type
Flight plan parsing failed, navigation log unavailable